Time;durP1;ratioP1;P1;durP2;ratioP2;P2;SDS_P1;SDS_P2;PMS_P1;PMS_P2;Temp;Humidity;BMP_temperature;BMP_pressure;BME280_temperature;BME280_humidity;BME280_pressure;Samples;Min_cycle;Max_cycle;Signal;HPM_P1;HPM_P2
2022/11/20 00:01:22;;;;;;;6.30;3.43;;;6.30;69.20;;;;;;5087105;27;46345;-67
2022/11/20 00:03:48;;;;;;;9.07;3.70;;;6.40;68.00;;;;;;5086350;27;47183;-66
2022/11/20 00:06:16;;;;;;;4.20;2.87;;;6.30;69.00;;;;;;5085022;27;46299;-68
2022/11/20 00:08:42;;;;;;;4.63;2.73;;;6.30;69.10;;;;;;5086399;27;46752;-68
2022/11/20 00:11:19;;;;;;;5.97;3.00;;;6.30;69.10;;;;;;5088401;27;46112;-67
2022/11/20 00:13:46;;;;;;;4.63;2.90;;;6.30;68.20;;;;;;5086849;27;47165;-68
2022/11/20 00:16:13;;;;;;;10.93;3.10;;;6.30;69.30;;;;;;5070184;27;46097;-66
2022/11/20 00:18:39;;;;;;;6.67;3.00;;;6.30;69.30;;;;;;5088515;27;45780;-67
2022/11/20 00:21:07;;;;;;;5.70;3.33;;;6.30;69.30;;;;;;5085606;27;45897;-67
2022/11/20 00:23:34;;;;;;;5.07;3.43;;;6.30;68.20;;;;;;5089032;27;49310;-68
2022/11/20 00:26:04;;;;;;;6.40;3.37;;;6.30;69.20;;;;;;5084875;27;46527;-68
2022/11/20 00:28:30;;;;;;;4.27;3.30;;;6.30;70.50;;;;;;5083139;27;46446;-66
2022/11/20 00:31:07;;;;;;;4.20;2.90;;;6.20;69.40;;;;;;5088981;27;46589;-68
2022/11/20 00:33:33;;;;;;;5.60;3.37;;;6.20;68.60;;;;;;5088265;27;46429;-67
2022/11/20 00:36:03;;;;;;;4.30;2.97;;;6.20;69.70;;;;;;5085553;27;46484;-68
2022/11/20 00:38:30;;;;;;;10.90;3.43;;;6.20;69.50;;;;;;5085519;27;46407;-68
2022/11/20 00:40:57;;;;;;;5.77;3.60;;;6.20;69.40;;;;;;5102536;27;46307;-68
2022/11/20 00:43:22;;;;;;;4.97;3.57;;;6.20;69.30;;;;;;5089386;27;48310;-68
2022/11/20 00:45:48;;;;;;;4.87;3.53;;;6.30;69.30;;;;;;5086626;27;46472;-68
2022/11/20 00:48:14;;;;;;;6.40;4.20;;;6.30;69.20;;;;;;5082358;27;46414;-68
2022/11/20 00:50:41;;;;;;;6.23;3.60;;;6.30;69.20;;;;;;5087313;27;46392;-67
2022/11/20 00:53:07;;;;;;;4.80;3.23;;;6.30;68.20;;;;;;5086554;27;46686;-69
2022/11/20 00:55:32;;;;;;;6.27;3.87;;;6.30;69.20;;;;;;5088648;27;46305;-68
2022/11/20 00:57:58;;;;;;;5.53;3.83;;;6.30;69.00;;;;;;5085983;27;46478;-65
2022/11/20 01:00:23;;;;;;;6.17;3.50;;;6.30;69.00;;;;;;5089183;27;46298;-65
2022/11/20 01:02:49;;;;;;;5.00;3.60;;;6.30;69.00;;;;;;5083942;27;46641;-66
2022/11/20 01:05:14;;;;;;;5.33;3.17;;;6.30;67.80;;;;;;5086328;27;46440;-67
2022/11/20 01:07:40;;;;;;;6.60;4.10;;;6.30;69.00;;;;;;5088983;27;46447;-67
2022/11/20 01:10:06;;;;;;;6.60;3.40;;;6.30;69.30;;;;;;5086245;27;47150;-68
2022/11/20 01:12:32;;;;;;;6.23;3.63;;;6.30;69.30;;;;;;5085165;27;47434;-66
2022/11/20 01:14:57;;;;;;;8.80;4.30;;;6.20;68.30;;;;;;5086216;27;46455;-67
2022/11/20 01:17:23;;;;;;;5.60;3.50;;;6.20;69.60;;;;;;5086062;27;46377;-69
2022/11/20 01:19:50;;;;;;;7.07;3.97;;;6.10;69.70;;;;;;5086373;27;46517;-67
2022/11/20 01:22:16;;;;;;;7.53;4.30;;;6.10;69.90;;;;;;5084384;27;46493;-68
2022/11/20 01:24:41;;;;;;;7.70;4.00;;;6.10;69.00;;;;;;5083518;27;46309;-68
2022/11/20 01:27:07;;;;;;;5.90;4.13;;;6.00;70.00;;;;;;5083451;27;46468;-66
2022/11/20 01:29:32;;;;;;;6.60;3.80;;;5.90;70.60;;;;;;5088635;27;46356;-67
2022/11/20 01:31:58;;;;;;;8.33;4.43;;;5.90;70.70;;;;;;5081741;27;48222;-67
2022/11/20 01:34:24;;;;;;;8.90;4.00;;;5.80;70.80;;;;;;5084731;27;46411;-66
2022/11/20 01:36:51;;;;;;;7.30;3.90;;;5.70;71.00;;;;;;5086733;27;46375;-67
2022/11/20 01:39:22;;;;;;;7.70;5.30;;;5.60;71.10;;;;;;5087953;27;46448;-66
2022/11/20 01:44:48;;;;;;;6.47;4.33;;;5.40;70.50;;;;;;5085155;27;46627;-67
2022/11/20 01:47:20;;;;;;;6.30;4.20;;;5.40;71.60;;;;;;5088741;27;46542;-67
2022/11/20 01:49:52;;;;;;;5.87;4.13;;;5.30;71.70;;;;;;5092020;27;46306;-67
2022/11/20 01:52:22;;;;;;;11.53;4.43;;;5.20;71.90;;;;;;5087688;27;47468;-66
2022/11/20 01:55:11;;;;;;;6.60;3.80;;;5.20;72.10;;;;;;5085715;27;46338;-68
2022/11/20 01:57:39;;;;;;;11.13;3.97;;;5.10;72.10;;;;;;5083740;27;46390;-65
2022/11/20 02:00:09;;;;;;;6.80;3.60;;;5.20;72.10;;;;;;5086571;27;46900;-69
2022/11/20 02:02:37;;;;;;;7.37;4.40;;;5.10;71.80;;;;;;5087413;27;46334;-68
2022/11/20 02:05:14;;;;;;;6.87;4.67;;;5.10;70.60;;;;;;5088168;27;46656;-67
2022/11/20 02:07:40;;;;;;;10.40;5.30;;;5.20;71.60;;;;;;5088960;27;45878;-68
2022/11/20 02:10:06;;;;;;;7.00;4.30;;;5.20;71.40;;;;;;5081541;27;45877;-68
2022/11/20 02:15:16;;;;;;;5.47;4.10;;;5.20;70.10;;;;;;5085532;27;46551;-67
2022/11/20 02:17:42;;;;;;;6.30;4.47;;;5.30;70.90;;;;;;5090752;27;46394;-69
2022/11/20 02:20:08;;;;;;;10.13;5.00;;;5.40;70.60;;;;;;5085823;27;46067;-67
2022/11/20 02:22:53;;;;;;;9.33;5.20;;;5.50;70.20;;;;;;5085567;27;46770;-66
2022/11/20 02:25:19;;;;;;;7.50;4.53;;;5.60;68.80;;;;;;5087704;27;45800;-67
2022/11/20 02:27:45;;;;;;;9.10;4.77;;;5.60;69.60;;;;;;5089020;27;45935;-68
2022/11/20 02:30:12;;;;;;;7.63;4.73;;;5.70;69.60;;;;;;5086134;27;46528;-67
2022/11/20 02:32:38;;;;;;;6.70;4.73;;;5.70;69.50;;;;;;5088335;27;46608;-68
2022/11/20 02:35:19;;;;;;;11.00;4.20;;;5.80;68.40;;;;;;5085905;27;47235;-68
2022/11/20 02:37:53;;;;;;;8.50;4.47;;;5.80;69.40;;;;;;5073425;27;46519;-66
2022/11/20 02:40:19;;;;;;;5.63;4.00;;;5.80;69.20;;;;;;5090326;27;46858;-67
2022/11/20 02:42:45;;;;;;;5.80;4.30;;;5.90;69.20;;;;;;5094840;27;47673;-67
2022/11/20 02:45:11;;;;;;;6.80;4.90;;;6.00;67.90;;;;;;5089357;27;46195;-65
2022/11/20 02:47:37;;;;;;;9.07;4.13;;;6.00;68.90;;;;;;5088323;27;46427;-67
2022/11/20 02:50:04;;;;;;;7.67;4.10;;;6.00;68.80;;;;;;5088134;27;46326;-67
2022/11/20 02:52:30;;;;;;;7.87;4.03;;;6.00;68.80;;;;;;5091434;27;46439;-67
2022/11/20 02:54:56;;;;;;;5.63;3.90;;;6.00;67.80;;;;;;5089563;27;46699;-69
2022/11/20 02:57:21;;;;;;;5.73;4.37;;;6.00;68.90;;;;;;5086979;27;46618;-67
2022/11/20 02:59:47;;;;;;;5.43;3.90;;;6.00;68.90;;;;;;5087778;27;46518;-66
2022/11/20 03:02:12;;;;;;;6.43;4.50;;;6.10;69.10;;;;;;5087483;27;46470;-67
2022/11/20 03:04:38;;;;;;;7.87;4.40;;;6.10;69.00;;;;;;5088501;27;46413;-68
2022/11/20 03:07:04;;;;;;;6.30;4.47;;;6.10;68.90;;;;;;5090167;27;46004;-68
2022/11/20 03:09:30;;;;;;;14.50;4.77;;;6.10;68.80;;;;;;5091213;27;46376;-68
2022/11/20 03:11:56;;;;;;;6.37;4.23;;;6.20;68.80;;;;;;5089011;27;47029;-66
2022/11/20 03:14:21;;;;;;;7.33;4.33;;;6.20;68.70;;;;;;5087497;27;46721;-69
2022/11/20 03:16:47;;;;;;;6.13;4.53;;;6.20;68.80;;;;;;5090960;27;46481;-66
2022/11/20 03:19:13;;;;;;;10.67;4.50;;;6.20;68.60;;;;;;5089854;27;46582;-67
2022/11/20 03:21:39;;;;;;;6.27;4.37;;;6.20;68.60;;;;;;5087093;27;47813;-70
2022/11/20 03:24:05;;;;;;;6.13;4.13;;;6.20;67.60;;;;;;5085421;27;46426;-68
2022/11/20 03:26:31;;;;;;;6.90;4.47;;;6.20;68.60;;;;;;5085632;27;46599;-68
2022/11/20 03:28:59;;;;;;;10.17;4.20;;;6.20;68.50;;;;;;5091521;27;46276;-68
2022/11/20 03:31:30;;;;;;;9.97;4.47;;;6.20;68.60;;;;;;5083343;27;46758;-67
2022/11/20 03:33:57;;;;;;;4.63;3.70;;;6.30;67.50;;;;;;5085478;27;46449;-67
2022/11/20 03:36:23;;;;;;;6.23;3.80;;;6.30;68.60;;;;;;5086571;27;46926;-69
2022/11/20 03:38:49;;;;;;;5.93;4.53;;;6.30;68.60;;;;;;5086257;27;46721;-66
2022/11/20 03:41:20;;;;;;;5.33;4.00;;;6.30;68.50;;;;;;5086536;27;46610;-68
2022/11/20 03:43:50;;;;;;;6.87;4.47;;;6.30;67.40;;;;;;5086650;27;45938;-68
2022/11/20 03:46:17;;;;;;;7.83;4.27;;;6.30;68.50;;;;;;5085480;27;46445;-67
2022/11/20 03:48:42;;;;;;;5.47;3.90;;;6.30;67.40;;;;;;5088170;27;46338;-69
2022/11/20 03:51:16;;;;;;;7.13;4.50;;;6.30;68.50;;;;;;5084820;27;46654;-68
2022/11/20 03:53:43;;;;;;;6.50;3.70;;;6.20;67.60;;;;;;5086027;27;46476;-66
2022/11/20 03:56:10;;;;;;;7.67;3.90;;;6.20;68.60;;;;;;5089417;27;46593;-69
2022/11/20 03:58:41;;;;;;;5.33;3.87;;;6.20;68.60;;;;;;5090080;27;46373;-66
2022/11/20 04:01:12;;;;;;;5.90;3.67;;;6.20;68.70;;;;;;5089856;27;47678;-68
2022/11/20 04:03:40;;;;;;;4.50;3.47;;;6.20;67.90;;;;;;5085218;27;46491;-66
2022/11/20 04:06:13;;;;;;;5.90;3.40;;;6.20;69.00;;;;;;5084162;27;46523;-71
2022/11/20 04:08:40;;;;;;;6.90;3.97;;;6.20;68.80;;;;;;5087751;27;46246;-68
2022/11/20 04:11:17;;;;;;;5.90;3.60;;;6.20;68.90;;;;;;5089416;27;47921;-66
2022/11/20 04:13:46;;;;;;;5.67;3.97;;;6.20;67.90;;;;;;5081882;27;46677;-68
2022/11/20 04:16:12;;;;;;;5.03;3.67;;;6.10;68.90;;;;;;5088875;27;45921;-67
2022/11/20 04:18:38;;;;;;;6.90;3.90;;;6.10;68.00;;;;;;5087640;27;46554;-67
2022/11/20 04:21:04;;;;;;;4.97;3.33;;;6.20;69.00;;;;;;5089424;27;47984;-67
2022/11/20 04:23:30;;;;;;;6.00;4.00;;;6.20;68.90;;;;;;5085450;27;45970;-69
2022/11/20 04:26:02;;;;;;;7.53;4.27;;;6.10;69.00;;;;;;5087562;27;45813;-68
2022/11/20 04:28:27;;;;;;;5.33;3.90;;;6.10;68.90;;;;;;5083806;27;46689;-69
2022/11/20 04:30:53;;;;;;;6.60;4.20;;;6.20;68.90;;;;;;5091579;27;46457;-67
2022/11/20 04:33:18;;;;;;;6.97;4.00;;;6.10;68.80;;;;;;5087293;27;46327;-66
2022/11/20 04:35:47;;;;;;;6.37;4.33;;;6.20;69.00;;;;;;5085981;27;46456;-71
2022/11/20 04:38:13;;;;;;;6.73;4.20;;;6.20;68.90;;;;;;5086085;27;46400;-69
2022/11/20 04:40:38;;;;;;;8.67;3.40;;;6.20;68.80;;;;;;5085420;27;46518;-70
2022/11/20 04:43:04;;;;;;;4.90;3.53;;;6.20;67.60;;;;;;5086761;27;46475;-68
2022/11/20 04:45:29;;;;;;;4.90;3.80;;;6.20;68.70;;;;;;5086432;27;46445;-68
2022/11/20 04:47:55;;;;;;;6.43;3.70;;;6.20;68.70;;;;;;5085119;27;46602;-68
2022/11/20 04:50:21;;;;;;;5.87;3.83;;;6.20;68.70;;;;;;5089988;27;46590;-69
2022/11/20 04:52:46;;;;;;;6.40;3.30;;;6.20;68.60;;;;;;5087927;27;46419;-69
2022/11/20 04:55:12;;;;;;;7.60;3.93;;;6.20;67.40;;;;;;5087111;27;46521;-70
2022/11/20 04:57:37;;;;;;;5.33;3.17;;;6.20;68.70;;;;;;5085464;27;46566;-68
2022/11/20 05:00:04;;;;;;;4.00;3.03;;;6.10;68.60;;;;;;5087819;27;46685;-68
2022/11/20 05:02:31;;;;;;;6.63;3.50;;;6.10;68.80;;;;;;5085756;27;46446;-69
2022/11/20 05:04:56;;;;;;;4.97;3.30;;;6.00;67.80;;;;;;5087814;27;46448;-69
2022/11/20 05:07:22;;;;;;;4.63;3.30;;;6.00;69.10;;;;;;5080310;27;47013;-71
2022/11/20 05:09:47;;;;;;;5.87;3.50;;;5.90;69.30;;;;;;5087294;27;46460;-70
2022/11/20 05:12:13;;;;;;;7.70;3.53;;;5.70;69.50;;;;;;5084107;27;47110;-70
2022/11/20 05:14:38;;;;;;;4.90;3.40;;;5.60;69.00;;;;;;5084870;27;46471;-68
2022/11/20 05:17:04;;;;;;;5.87;3.80;;;5.50;70.20;;;;;;5086389;27;46732;-68
2022/11/20 05:19:30;;;;;;;6.33;3.73;;;5.40;70.50;;;;;;5085110;27;46486;-71
2022/11/20 05:21:56;;;;;;;5.00;3.40;;;5.30;70.90;;;;;;5087667;27;45753;-69
2022/11/20 05:24:22;;;;;;;6.10;3.73;;;5.10;70.10;;;;;;5087526;27;46434;-68
2022/11/20 05:26:47;;;;;;;5.17;3.33;;;5.00;71.20;;;;;;5084057;27;46355;-69
2022/11/20 05:29:13;;;;;;;19.37;10.27;;;5.00;71.30;;;;;;5086162;27;49075;-68
2022/11/20 05:31:40;;;;;;;13.50;7.47;;;5.00;71.20;;;;;;5086490;27;46305;-72
2022/11/20 05:34:05;;;;;;;13.13;5.60;;;5.20;71.00;;;;;;5084277;27;46658;-70
2022/11/20 05:36:32;;;;;;;7.97;4.63;;;5.30;70.50;;;;;;5087896;27;46482;-72
2022/11/20 05:38:57;;;;;;;9.30;5.40;;;5.50;69.90;;;;;;5086011;27;46723;-71
2022/11/20 05:41:23;;;;;;;6.10;3.80;;;5.60;68.40;;;;;;5086092;27;46003;-70
2022/11/20 05:43:49;;;;;;;9.07;4.50;;;5.50;68.50;;;;;;5082814;27;46810;-68
2022/11/20 05:46:20;;;;;;;9.10;4.50;;;5.50;69.70;;;;;;5087761;27;46367;-69
2022/11/20 05:48:46;;;;;;;11.00;4.90;;;5.40;69.80;;;;;;5087010;27;47906;-68
2022/11/20 05:51:15;;;;;;;7.80;5.20;;;5.30;69.90;;;;;;5084271;27;46283;-70
2022/11/20 05:53:40;;;;;;;8.40;4.20;;;5.30;70.10;;;;;;5085307;27;46375;-71
2022/11/20 05:56:10;;;;;;;8.23;5.00;;;5.20;70.30;;;;;;5085642;27;46695;-68
2022/11/20 05:58:37;;;;;;;6.80;3.80;;;5.20;70.10;;;;;;5090514;27;47170;-69
2022/11/20 06:01:10;;;;;;;7.40;4.53;;;5.30;70.00;;;;;;5085522;27;46430;-68
2022/11/20 06:03:36;;;;;;;6.53;4.27;;;5.40;68.50;;;;;;5084665;27;46455;-68
2022/11/20 06:06:03;;;;;;;6.00;3.60;;;5.50;68.20;;;;;;5088776;27;45913;-71
2022/11/20 06:08:29;;;;;;;8.57;5.10;;;5.50;69.20;;;;;;5093923;27;46431;-69
2022/11/20 06:10:55;;;;;;;6.97;3.90;;;5.60;68.80;;;;;;5089219;27;46364;-68
2022/11/20 06:13:21;;;;;;;7.83;4.70;;;5.80;67.50;;;;;;5089791;27;46910;-67
2022/11/20 06:15:50;;;;;;;5.70;3.50;;;5.80;68.50;;;;;;5092834;27;46606;-68
2022/11/20 06:18:16;;;;;;;7.67;3.93;;;5.80;68.50;;;;;;5090155;27;46484;-71
2022/11/20 06:20:41;;;;;;;4.63;3.07;;;5.80;68.40;;;;;;5094283;27;46830;-70
2022/11/20 06:23:07;;;;;;;4.63;3.47;;;5.90;67.40;;;;;;5086174;27;46433;-68
2022/11/20 06:25:33;;;;;;;5.07;3.57;;;5.90;68.40;;;;;;5092135;27;46615;-68
2022/11/20 06:27:58;;;;;;;4.47;3.10;;;5.90;68.40;;;;;;5090808;27;46731;-68
2022/11/20 06:30:24;;;;;;;5.93;3.13;;;5.90;68.40;;;;;;5094234;27;46440;-68
2022/11/20 06:32:49;;;;;;;6.90;3.83;;;5.90;68.30;;;;;;5088670;27;46532;-68
2022/11/20 06:35:15;;;;;;;6.03;3.70;;;5.90;67.20;;;;;;5086287;27;46714;-70
2022/11/20 06:37:41;;;;;;;5.60;3.33;;;6.00;68.30;;;;;;5088035;27;46717;-68
2022/11/20 06:40:07;;;;;;;6.57;3.97;;;6.00;68.20;;;;;;5089472;27;46692;-69
2022/11/20 06:42:32;;;;;;;5.17;3.40;;;6.00;68.10;;;;;;5088162;27;46911;-71
2022/11/20 06:44:58;;;;;;;5.70;4.10;;;6.10;67.00;;;;;;5087699;27;46327;-69
2022/11/20 06:47:24;;;;;;;5.83;3.57;;;6.10;68.10;;;;;;5084829;27;46626;-69
2022/11/20 06:49:49;;;;;;;5.90;3.83;;;6.10;67.90;;;;;;5081786;27;46400;-72
2022/11/20 06:52:15;;;;;;;8.17;3.77;;;6.10;68.10;;;;;;5090243;27;46366;-70
2022/11/20 06:54:40;;;;;;;7.93;4.30;;;6.10;67.00;;;;;;5089839;27;46939;-69
2022/11/20 06:57:06;;;;;;;7.33;3.50;;;6.10;68.00;;;;;;5089095;27;46778;-68
2022/11/20 06:59:31;;;;;;;5.50;3.57;;;6.20;67.90;;;;;;5088272;27;46644;-70
2022/11/20 07:01:57;;;;;;;5.00;3.77;;;6.20;67.70;;;;;;5088421;27;46493;-69
2022/11/20 07:04:22;;;;;;;5.80;3.57;;;6.30;66.60;;;;;;5118818;27;46553;-68
2022/11/20 07:06:48;;;;;;;5.43;3.17;;;6.30;67.70;;;;;;5086292;27;46741;-69
2022/11/20 07:09:14;;;;;;;5.80;3.80;;;6.30;67.70;;;;;;5094590;27;46267;-69
2022/11/20 07:11:39;;;;;;;6.83;3.87;;;6.30;67.70;;;;;;5086401;27;46334;-70
2022/11/20 07:14:05;;;;;;;5.80;3.93;;;6.30;67.60;;;;;;5086754;27;46817;-68
2022/11/20 07:16:30;;;;;;;5.23;3.70;;;6.30;66.50;;;;;;5087924;27;46931;-71
2022/11/20 07:18:56;;;;;;;5.53;3.27;;;6.40;67.60;;;;;;5090484;27;46567;-68
2022/11/20 07:21:22;;;;;;;5.63;3.60;;;6.40;67.60;;;;;;5088104;27;46418;-68
2022/11/20 07:23:47;;;;;;;6.00;3.80;;;6.50;66.50;;;;;;5087690;27;46621;-68
2022/11/20 07:26:13;;;;;;;4.50;3.57;;;6.50;67.50;;;;;;5085770;27;47431;-67
2022/11/20 07:28:38;;;;;;;4.73;3.20;;;6.50;67.50;;;;;;5087438;27;46460;-67
2022/11/20 07:31:06;;;;;;;4.80;3.60;;;6.50;67.60;;;;;;5091240;27;46465;-68
2022/11/20 07:33:32;;;;;;;6.63;4.33;;;6.50;67.70;;;;;;5087938;27;46577;-69
2022/11/20 07:36:01;;;;;;;5.43;3.80;;;6.50;67.70;;;;;;5088185;27;46919;-68
2022/11/20 07:38:28;;;;;;;5.80;4.17;;;6.60;67.60;;;;;;5086296;27;47515;-67
2022/11/20 07:40:57;;;;;;;6.63;3.73;;;6.70;67.30;;;;;;5092332;27;46482;-68
2022/11/20 07:43:24;;;;;;;6.00;4.00;;;6.90;65.70;;;;;;5086142;27;46441;-67
2022/11/20 07:45:49;;;;;;;6.03;4.00;;;6.90;66.70;;;;;;5088948;27;47106;-69
2022/11/20 07:48:15;;;;;;;6.80;3.97;;;7.00;66.60;;;;;;5086992;27;46435;-70
2022/11/20 07:50:41;;;;;;;7.20;4.73;;;7.10;65.30;;;;;;5084064;27;46459;-69
2022/11/20 07:53:07;;;;;;;5.53;3.90;;;7.10;65.20;;;;;;5085921;27;46351;-68
2022/11/20 07:55:33;;;;;;;4.93;3.93;;;7.10;66.10;;;;;;5086863;27;47461;-68
2022/11/20 07:57:58;;;;;;;8.17;4.13;;;7.20;66.30;;;;;;5091414;27;46476;-68
2022/11/20 08:00:26;;;;;;;9.70;4.07;;;7.20;66.10;;;;;;5085449;27;46718;-68
2022/11/20 08:02:51;;;;;;;6.40;4.10;;;7.20;66.20;;;;;;5087677;27;46898;-69
2022/11/20 08:05:17;;;;;;;5.63;3.50;;;7.30;65.00;;;;;;5088422;27;46905;-68
2022/11/20 08:07:44;;;;;;;4.90;3.83;;;7.30;66.20;;;;;;5090568;27;46395;-69
2022/11/20 08:10:11;;;;;;;4.80;3.87;;;7.30;66.00;;;;;;5088788;27;46394;-68
2022/11/20 08:15:28;;;;;;;5.70;3.60;;;7.30;64.90;;;;;;5079545;27;46682;-68
2022/11/20 08:18:06;;;;;;;6.00;3.53;;;7.30;65.90;;;;;;5085652;27;46420;-67
2022/11/20 08:20:33;;;;;;;7.00;3.97;;;7.40;67.10;;;;;;5084307;27;46381;-67
2022/11/20 08:23:01;;;;;;;4.77;3.13;;;7.50;65.80;;;;;;5084784;27;46401;-69
2022/11/20 08:25:28;;;;;;;6.47;3.90;;;7.50;64.30;;;;;;5075261;27;46261;-67
2022/11/20 08:27:53;;;;;;;7.67;3.47;;;7.60;65.30;;;;;;5080072;27;46346;-70
2022/11/20 08:30:19;;;;;;;5.03;3.43;;;7.70;65.00;;;;;;5081917;27;45938;-70
2022/11/20 08:32:45;;;;;;;5.30;3.50;;;7.80;64.70;;;;;;5068774;27;46873;-72
2022/11/20 08:35:10;;;;;;;4.03;3.13;;;7.90;64.30;;;;;;5075325;27;46344;-70
2022/11/20 08:37:38;;;;;;;3.57;2.53;;;7.90;64.30;;;;;;5083750;27;46568;-68
2022/11/20 08:40:04;;;;;;;5.93;3.30;;;7.90;64.40;;;;;;5085783;27;46442;-71
2022/11/20 08:42:30;;;;;;;5.90;3.10;;;7.80;64.40;;;;;;5063371;27;46930;-68
2022/11/20 08:44:55;;;;;;;5.47;3.20;;;7.80;63.30;;;;;;5078316;27;46893;-68
2022/11/20 08:47:21;;;;;;;9.03;3.57;;;7.90;64.60;;;;;;5086359;27;46478;-68
2022/11/20 08:49:46;;;;;;;4.07;2.63;;;7.90;64.60;;;;;;5086325;27;46856;-69
2022/11/20 08:52:12;;;;;;;5.10;3.10;;;7.90;64.50;;;;;;5088567;27;46327;-68
2022/11/20 08:54:37;;;;;;;8.20;3.20;;;7.90;64.30;;;;;;5086695;27;47067;-70
2022/11/20 08:57:03;;;;;;;4.90;2.67;;;8.00;64.30;;;;;;5086847;27;46519;-66
2022/11/20 08:59:29;;;;;;;4.37;2.87;;;7.90;64.10;;;;;;5084150;27;46469;-68
2022/11/20 09:01:55;;;;;;;4.03;2.90;;;8.00;64.00;;;;;;5083827;27;46467;-68
2022/11/20 09:04:21;;;;;;;4.57;2.90;;;8.00;64.10;;;;;;5085014;27;47322;-68
2022/11/20 09:06:50;;;;;;;4.80;2.80;;;8.00;63.80;;;;;;5085820;27;46453;-68
2022/11/20 09:09:16;;;;;;;79.73;36.90;;;8.20;63.90;;;;;;5090015;27;46410;-67
2022/11/20 09:11:42;;;;;;;5.30;3.13;;;8.40;64.00;;;;;;5089364;27;46457;-67
2022/11/20 09:14:07;;;;;;;7.57;4.17;;;8.60;62.50;;;;;;5088532;27;46373;-69
2022/11/20 09:16:33;;;;;;;6.20;2.93;;;8.80;62.30;;;;;;5086980;27;46376;-68
2022/11/20 09:18:59;;;;;;;4.53;3.37;;;9.00;61.80;;;;;;5088570;27;46443;-68
2022/11/20 09:21:24;;;;;;;41.30;19.77;;;9.00;61.40;;;;;;5087594;27;46414;-69
2022/11/20 09:23:50;;;;;;;5.27;3.50;;;9.00;61.50;;;;;;5083041;27;46515;-67
2022/11/20 09:26:15;;;;;;;6.17;3.07;;;9.00;61.30;;;;;;5087184;27;46368;-68
2022/11/20 09:28:41;;;;;;;4.37;2.50;;;9.00;61.20;;;;;;5086349;27;46325;-68
2022/11/20 09:31:08;;;;;;;4.50;2.73;;;9.10;61.10;;;;;;5087265;27;46290;-66
2022/11/20 09:33:37;;;;;;;8.47;2.77;;;9.20;60.90;;;;;;5081036;27;46428;-70
2022/11/20 09:36:03;;;;;;;6.63;2.47;;;9.30;60.90;;;;;;5085629;27;46511;-68
2022/11/20 09:38:29;;;;;;;4.30;2.80;;;9.30;60.50;;;;;;5085260;27;46362;-65
2022/11/20 09:41:05;;;;;;;4.97;2.83;;;9.30;60.50;;;;;;5091280;27;46329;-65
2022/11/20 09:43:58;;;;;;;3.67;2.40;;;9.30;60.30;;;;;;5088936;27;46692;-67
2022/11/20 09:46:33;;;;;;;3.37;2.17;;;9.20;60.20;;;;;;5084361;27;46467;-68
2022/11/20 09:49:07;;;;;;;2.87;2.13;;;9.20;60.50;;;;;;5084814;27;45875;-69
2022/11/20 09:51:56;;;;;;;5.37;2.90;;;9.10;60.30;;;;;;5069172;27;46397;-67
2022/11/20 09:54:26;;;;;;;61.17;30.67;;;9.10;60.40;;;;;;5081629;27;47190;-68
2022/11/20 09:57:05;;;;;;;3.93;2.30;;;8.90;60.70;;;;;;5085662;27;46425;-69
2022/11/20 09:59:54;;;;;;;3.70;1.90;;;8.80;60.80;;;;;;5086261;27;46362;-68
2022/11/20 10:02:36;;;;;;;3.73;2.17;;;8.60;60.50;;;;;;5088021;27;46570;-66
2022/11/20 10:05:11;;;;;;;3.83;1.97;;;8.60;60.30;;;;;;5086585;27;47829;-65
2022/11/20 10:07:56;;;;;;;2.97;1.40;;;8.60;59.80;;;;;;5085671;27;46574;-69
2022/11/20 10:10:48;;;;;;;4.60;2.37;;;8.60;58.60;;;;;;5084931;27;46362;-67
2022/11/20 10:13:19;;;;;;;2.57;1.90;;;8.50;57.60;;;;;;5085660;27;46735;-69
2022/11/20 10:16:14;;;;;;;2.83;1.80;;;8.50;58.60;;;;;;5083081;27;46514;-69
2022/11/20 10:19:04;;;;;;;3.80;1.80;;;8.50;58.60;;;;;;5102678;27;46401;-71
2022/11/20 10:21:35;;;;;;;8.13;2.10;;;8.60;58.40;;;;;;5084328;27;46620;-67
2022/11/20 10:24:23;;;;;;;4.97;1.90;;;8.50;58.30;;;;;;5082655;27;46528;-66
2022/11/20 10:26:55;;;;;;;2.17;1.53;;;8.50;57.70;;;;;;5086615;27;46529;-68
2022/11/20 10:29:36;;;;;;;2.97;1.57;;;8.60;57.70;;;;;;5082837;27;45894;-69
2022/11/20 10:32:07;;;;;;;2.57;1.77;;;8.80;57.50;;;;;;5083851;27;45847;-66
2022/11/20 10:34:49;;;;;;;3.50;1.80;;;9.00;57.20;;;;;;5081814;27;46670;-67
2022/11/20 10:37:23;;;;;;;3.20;2.13;;;9.20;56.70;;;;;;5083076;27;46519;-68
2022/11/20 10:40:37;;;;;;;2.43;1.63;;;9.20;56.60;;;;;;5083614;27;45849;-68
2022/11/20 10:43:19;;;;;;;2.70;1.80;;;9.20;56.70;;;;;;5081030;27;46886;-67
2022/11/20 10:45:57;;;;;;;3.23;1.87;;;9.30;56.60;;;;;;5086281;27;46550;-71
2022/11/20 10:48:28;;;;;;;2.90;1.87;;;9.20;56.50;;;;;;5090292;27;49187;-71
2022/11/20 10:51:04;;;;;;;2.77;1.40;;;9.20;57.00;;;;;;5118328;27;46562;-70
2022/11/20 10:53:59;;;;;;;2.80;1.70;;;9.00;57.00;;;;;;5087313;27;46648;-69
2022/11/20 10:56:51;;;;;;;2.80;1.90;;;8.90;57.20;;;;;;5088725;27;46419;-69
2022/11/20 10:59:38;;;;;;;3.80;2.30;;;8.80;57.30;;;;;;5091981;27;47473;-69
2022/11/20 11:02:17;;;;;;;3.03;1.90;;;8.80;57.50;;;;;;5085494;27;46676;-69
2022/11/20 11:04:48;;;;;;;5.53;3.30;;;8.90;57.00;;;;;;5085822;27;46494;-72
2022/11/20 11:07:36;;;;;;;4.43;2.00;;;8.90;56.70;;;;;;5089011;27;46572;-69
2022/11/20 11:10:13;;;;;;;4.73;2.30;;;8.80;56.80;;;;;;5087158;27;46404;-70
2022/11/20 11:12:45;;;;;;;3.30;2.07;;;8.80;56.90;;;;;;5091523;27;46313;-70
2022/11/20 11:15:15;;;;;;;5.80;1.97;;;8.70;57.10;;;;;;5089905;27;46493;-71
2022/11/20 11:17:47;;;;;;;3.57;2.07;;;8.50;57.20;;;;;;5089807;27;46876;-70
2022/11/20 11:20:19;;;;;;;3.50;1.90;;;8.40;57.40;;;;;;5087459;27;46633;-70
2022/11/20 11:22:50;;;;;;;3.17;1.97;;;8.30;57.50;;;;;;5086251;27;46396;-69
2022/11/20 11:25:36;;;;;;;3.00;1.87;;;8.20;57.50;;;;;;5083387;27;46510;-71
2022/11/20 11:28:21;;;;;;;2.43;1.70;;;8.30;57.40;;;;;;5087936;27;46683;-71
2022/11/20 11:30:49;;;;;;;4.97;1.67;;;8.30;57.40;;;;;;5090079;27;46385;-71
2022/11/20 11:33:23;;;;;;;4.13;1.73;;;8.50;56.10;;;;;;5089555;27;46419;-70
2022/11/20 11:35:58;;;;;;;2.00;1.60;;;8.50;57.10;;;;;;5084161;27;46886;-70
2022/11/20 11:38:42;;;;;;;2.30;1.40;;;8.50;56.80;;;;;;5087389;27;47212;-68
2022/11/20 11:41:15;;;;;;;2.33;1.47;;;8.60;56.70;;;;;;5091107;27;47328;-69
2022/11/20 11:46:52;;;;;;;2.00;1.37;;;8.70;56.40;;;;;;5094474;27;46333;-71
2022/11/20 11:49:19;;;;;;;1.80;1.13;;;8.60;56.30;;;;;;5089225;27;46538;-69
2022/11/20 11:52:14;;;;;;;4.67;1.40;;;8.60;56.60;;;;;;5086033;27;46632;-70
2022/11/20 11:54:40;;;;;;;2.80;1.87;;;8.60;56.60;;;;;;5081618;27;46511;-70
2022/11/20 11:57:30;;;;;;;11.13;5.70;;;8.60;56.70;;;;;;5088423;27;46815;-68
2022/11/20 12:00:15;;;;;;;5.13;2.87;;;8.60;56.60;;;;;;5087996;27;46665;-70
2022/11/20 12:02:49;;;;;;;3.60;1.87;;;8.60;56.60;;;;;;5085912;27;46707;-70
2022/11/20 12:05:20;;;;;;;4.70;1.77;;;8.50;56.70;;;;;;5084620;27;46458;-69
2022/11/20 12:08:03;;;;;;;3.47;1.97;;;8.40;56.90;;;;;;5088586;27;47744;-67
2022/11/20 12:10:45;;;;;;;9.03;5.07;;;8.40;56.80;;;;;;5081987;27;46431;-70
2022/11/20 12:13:39;;;;;;;3.30;1.77;;;8.50;55.70;;;;;;5085679;27;46599;-69
2022/11/20 12:16:08;;;;;;;3.53;2.07;;;8.50;56.60;;;;;;5086588;27;46434;-70
2022/11/20 12:18:34;;;;;;;2.30;1.77;;;8.50;56.60;;;;;;5085363;27;46672;-69
2022/11/20 12:21:09;;;;;;;4.47;2.03;;;8.50;56.60;;;;;;5094316;27;46495;-72
2022/11/20 12:23:54;;;;;;;3.70;2.13;;;8.70;56.60;;;;;;5087456;27;47300;-68
2022/11/20 12:26:39;;;;;;;2.50;1.60;;;8.70;56.30;;;;;;5090906;27;46573;-67
2022/11/20 12:29:10;;;;;;;3.20;2.00;;;8.60;56.60;;;;;;5083355;27;46444;-66
2022/11/20 12:31:51;;;;;;;5.10;2.10;;;8.60;56.60;;;;;;5090696;27;46497;-65
2022/11/20 12:34:41;;;;;;;2.50;1.73;;;8.60;56.70;;;;;;5084267;27;46556;-66
2022/11/20 12:37:21;;;;;;;3.90;1.70;;;8.50;57.00;;;;;;5086737;27;46001;-64
2022/11/20 12:39:52;;;;;;;3.30;1.63;;;8.50;57.00;;;;;;5087179;27;46689;-65
2022/11/20 12:45:11;;;;;;;2.57;1.80;;;8.40;56.20;;;;;;5086763;27;46701;-66
2022/11/20 12:48:04;;;;;;;23.43;11.73;;;8.40;57.50;;;;;;5086688;27;46489;-64
2022/11/20 12:50:57;;;;;;;3.60;2.50;;;8.40;57.40;;;;;;5084732;27;46409;-65
2022/11/20 12:53:28;;;;;;;3.63;2.27;;;8.40;56.60;;;;;;5090981;27;46365;-65
2022/11/20 12:56:25;;;;;;;3.77;2.20;;;8.40;57.60;;;;;;5090594;27;46558;-65
2022/11/20 12:59:13;;;;;;;2.73;1.93;;;8.40;58.90;;;;;;5089649;27;46826;-66
2022/11/20 13:02:17;;;;;;;5.43;1.97;;;8.40;57.90;;;;;;5085854;27;45872;-65
2022/11/20 13:05:17;;;;;;;3.83;2.00;;;8.30;56.90;;;;;;5100397;27;47033;-64
2022/11/20 13:07:44;;;;;;;6.30;2.20;;;8.30;58.30;;;;;;5084350;27;47660;-67
2022/11/20 13:10:43;;;;;;;4.63;2.03;;;8.20;58.50;;;;;;5086964;27;46361;-65
2022/11/20 13:13:11;;;;;;;4.63;2.20;;;8.10;57.80;;;;;;5067931;27;46559;-65
2022/11/20 13:15:42;;;;;;;3.30;1.80;;;8.10;58.80;;;;;;5083277;27;46574;-65
2022/11/20 13:18:12;;;;;;;4.10;2.47;;;8.00;58.90;;;;;;5086902;27;46784;-65
2022/11/20 13:20:45;;;;;;;4.30;1.97;;;8.10;58.90;;;;;;5086517;27;46425;-65
2022/11/20 13:23:11;;;;;;;5.10;2.17;;;8.20;58.80;;;;;;5085768;27;46465;-65
2022/11/20 13:25:39;;;;;;;4.67;1.80;;;8.20;59.80;;;;;;5085526;27;45875;-65